РПИ Астана

РПИ Астана является структурным подразделением дивизиона VATRUS сети VATSIM.

РПИ осуществляет свою деятельность в границах Акмолинской, Карагандинской, Павлодарской, Северо-Казахстанской и Костанайской областей Республики Казахстан.

Схемы и аэронавигационную информацию можно получить на сайте   Казаэронавигация

Официальный Discord сервер региона Казахстан в VATSIM: https://discord.gg/eERFMeb2xR

Средства связи ОВД:

UACN_CTR - Астана Контроль - 132.800

RU-CEN_FSS - Азия Центр  - 132.850 (РПИ: UACN, UAAA, UAII, UATT, UTAA, UCFM, UTAT, UTDD, UTTR,  UCFO,  UTSD, UTAV,  UTAK)

Лого Астана
Руководство

Evgeny Vygornitsky*

Куратор

Dmitriy Bannov

Помощник куратора по Казахстану

Aleksandr Sokolov

Помощник куратора по Казахстану
Инструкторы РПИ
Aleksandr Sokolov (Instructor)
Dmitriy Bannov (Instructor)
Evgeny Vygornitsky (Supervisor)
Входит в состав
Центральная Азия

Диспетчеры РПИ

Диспетчер Рейтинг Допуски *
Aleksandr Sokolov Instructor UACN_CTR
Anatoly Zhilkin Controller UACN_CTR
Dmitriy Bannov Instructor UACN_CTR
Alexandr Belyakov Student 2 UACC_APP*
Alikhan Aidarbek Student UACC_TWR
Alikhan Xansky Student UACC_GND
Artem Kuzmenko Student 2 UACC_TWR
Ilya Potapov Student UACC_GND, UACC_TWR*
Kirill Ardatov Senior Student UACC_APP
Maxim Nazyrov Student 2 UACC_TWR, UACC_R_APP*
Mikhail Duzenko Student UACC_GND
Viktor Ivanov Instructor UACC_APP

Аэропорты РПИ

ICAO Город Название Погода
UACC Астана Астана UACC 240930Z 08009MPS CAVOK 11/00 Q1018 NOSIG RMK QFE732/0977
UAKK Караганда Караганда UAKK 240930Z 06006MPS 030V090 CAVOK 14/M03 Q1015 NOSIG RMK QFE714/0953
UAKD Жезказган Жезказган UAKD 240930Z 11009MPS 9999 VCSH BKN046CB 17/08 Q1012 NOSIG RMK QFE725/0967
UACK Кокшетау Кокшетау UACK 240930Z 08007MPS 050V110 CAVOK 09/M05 Q1022 NOSIG RMK QFE742/0990
UAUU Костанай Костанай UAUU 240930Z 08008MPS CAVOK 12/03 Q1019 TEMPO 06014MPS RMK QFE749/0999
UASP Павлодар Павлодар UASP 240930Z 03005MPS 350V060 9999 SCT046 05/M08 Q1023 NOSIG RMK QFE756/1009
UACP Петропавловск Петропавловск UACP 240930Z 07004MPS 360V110 9999 SCT046 06/M05 Q1025 NOSIG RMK QFE757/1009